Highbluff, Alabama
Current Conditions -  °F | °C
As of 4:58 AM on Thursday 18 Dec 2014 (Local Time) from KOZR Reporting Station
Clear Clear  
Wind Chill: 36°   Ceiling: Unl
Heat Index: 40°   Visibility: 9mi
Dew Point: 37°   Wind: 6mph
Humidity: 90%   Direction: 310°NW
Pressure: 30.17"   Gusts: NA
Location:  31.0743°N, 85.7353°W
Report Text: KOZR 181058Z AUTO 31005KT 9SM CLR 05/03 A3017 RMK AO2 SLP220 T00450030
Loading
Personal Weather Stations






























Interactive Weather Map New forecast layout! Learn more

10-Day Weather Forecast

Advertisements
Track Severe Weather on mobile